Time,TemperatureF,DewpointF,PressureIn,WindDirection,WindDirectionDegrees,WindSpeedMPH,WindSpeedGustMPH,Humidity,HourlyPrecipIn,Conditions,Clouds,dailyrainin,SoftwareType,DateUTC
2013-04-03 10:23:00,28.0,10.0,30.30,NNW,336,5.0,10.0,47,0.00,,,0.00,,2013-04-03 15:23:00,
2013-04-03 10:33:00,28.0,10.0,30.30,NNW,336,5.0,10.0,47,0.00,,,0.00,,2013-04-03 15:33:00,
2013-04-03 10:43:00,28.0,10.0,30.30,NNW,336,5.0,10.0,47,0.00,,,0.00,,2013-04-03 15:43:00,
2013-04-03 10:53:00,29.0,10.0,30.31,North,353,6.0,10.0,44,0.00,,,0.00,,2013-04-03 15:53:00,
2013-04-03 11:03:00,30.0,9.0,30.32,NNW,331,6.0,10.0,41,0.00,,,0.00,,2013-04-03 16:03:00,
2013-04-03 11:12:00,30.0,9.0,30.32,NNW,331,6.0,10.0,41,0.00,,,0.00,,2013-04-03 16:12:00,
2013-04-03 11:24:00,30.0,10.0,30.32,NNW,338,4.0,8.0,42,0.00,,,0.00,,2013-04-03 16:24:00,
2013-04-03 11:32:00,31.0,8.0,30.32,NNE,19,4.0,7.0,38,0.00,,,0.00,,2013-04-03 16:32:00,
2013-04-03 11:43:00,31.0,8.0,30.32,NNE,19,4.0,7.0,38,0.00,,,0.00,,2013-04-03 16:43:00,
2013-04-03 11:52:00,31.0,9.0,30.32,NW,321,4.0,12.0,39,0.00,,,0.00,,2013-04-03 16:52:00,
2013-04-03 12:03:00,31.0,8.0,30.32,NNW,335,5.0,10.0,38,0.00,,,0.00,,2013-04-03 17:03:00,
2013-04-03 12:13:00,31.0,8.0,30.32,NNW,335,5.0,10.0,38,0.00,,,0.00,,2013-04-03 17:13:00,
2013-04-03 12:23:00,32.0,9.0,30.32,WNW,301,3.0,10.0,38,0.00,,,0.00,,2013-04-03 17:23:00,
2013-04-03 12:33:00,33.0,9.0,30.31,NW,317,4.0,8.0,36,0.00,,,0.00,,2013-04-03 17:33:00,
2013-04-03 12:45:00,33.0,9.0,30.31,NW,317,4.0,8.0,36,0.00,,,0.00,,2013-04-03 17:45:00,
2013-04-03 12:53:00,33.0,9.0,30.31,NW,317,4.0,8.0,36,0.00,,,0.00,,2013-04-03 17:53:00,
2013-04-03 13:02:00,33.0,8.0,30.31,NW,308,5.0,13.0,34,0.00,,,0.00,,2013-04-03 18:02:00,
2013-04-03 13:12:00,33.0,8.0,30.31,NW,308,5.0,13.0,34,0.00,,,0.00,,2013-04-03 18:12:00,
2013-04-03 13:22:00,34.0,10.0,30.29,NNW,334,7.0,12.0,36,0.00,,,0.00,,2013-04-03 18:22:00,
2013-04-03 13:33:00,34.0,7.0,30.29,WNW,302,5.0,12.0,32,0.00,,,0.00,,2013-04-03 18:33:00,
2013-04-03 13:42:00,34.0,7.0,30.29,WNW,302,5.0,12.0,32,0.00,,,0.00,,2013-04-03 18:42:00,
2013-04-03 13:52:00,35.0,8.0,30.29,WNW,284,5.0,11.0,32,0.00,,,0.00,,2013-04-03 18:52:00,
2013-04-03 14:02:00,34.0,6.0,30.29,West,275,5.0,11.0,30,0.00,,,0.00,,2013-04-03 19:02:00,
2013-04-03 14:12:00,34.0,6.0,30.29,West,275,5.0,11.0,30,0.00,,,0.00,,2013-04-03 19:12:00,
2013-04-03 14:22:00,35.0,6.0,30.28,NW,306,4.0,10.0,29,0.00,,,0.00,,2013-04-03 19:22:00,
2013-04-03 14:32:00,35.0,5.0,30.26,North,11,4.0,11.0,28,0.00,,,0.00,,2013-04-03 19:32:00,
2013-04-03 14:42:00,35.0,5.0,30.26,North,11,4.0,11.0,28,0.00,,,0.00,,2013-04-03 19:42:00,
2013-04-03 14:52:00,36.0,9.0,30.26,NNW,343,5.0,9.0,32,0.00,,,0.00,,2013-04-03 19:52:00,
2013-04-03 15:02:00,36.0,8.0,30.25,North,5,4.0,11.0,30,0.00,,,0.00,,2013-04-03 20:02:00,
2013-04-03 15:12:00,36.0,8.0,30.25,North,5,4.0,11.0,30,0.00,,,0.00,,2013-04-03 20:12:00,
2013-04-03 15:22:00,36.0,8.0,30.24,NNE,25,3.0,9.0,31,0.00,,,0.00,,2013-04-03 20:22:00,
2013-04-03 15:32:00,37.0,7.0,30.22,North,349,1.0,6.0,28,0.00,,,0.00,,2013-04-03 20:32:00,
2013-04-03 15:42:00,37.0,7.0,30.22,North,349,1.0,6.0,28,0.00,,,0.00,,2013-04-03 20:42:00,
2013-04-03 15:52:00,37.0,7.0,30.22,North,3,2.0,9.0,28,0.00,,,0.00,,2013-04-03 20:52:00,
2013-04-03 16:02:00,36.0,13.0,30.22,SSE,153,4.0,11.0,38,0.00,,,0.00,,2013-04-03 21:02:00,
2013-04-03 16:12:00,36.0,13.0,30.22,SSE,153,4.0,11.0,38,0.00,,,0.00,,2013-04-03 21:12:00,
2013-04-03 16:22:00,35.0,14.0,30.21,SE,145,5.0,12.0,41,0.00,,,0.00,,2013-04-03 21:22:00,
2013-04-03 16:32:00,35.0,13.0,30.21,SSE,148,6.0,12.0,40,0.00,,,0.00,,2013-04-03 21:32:00,
2013-04-03 16:42:00,35.0,13.0,30.21,SSE,148,6.0,12.0,40,0.00,,,0.00,,2013-04-03 21:42:00,
2013-04-03 16:52:00,34.0,13.0,30.21,South,178,6.0,13.0,42,0.00,,,0.00,,2013-04-03 21:52:00,
2013-04-03 17:02:00,34.0,13.0,30.21,South,178,6.0,13.0,42,0.00,,,0.00,,2013-04-03 22:02:00,
2013-04-03 17:12:00,34.0,13.0,30.21,South,178,6.0,13.0,42,0.00,,,0.00,,2013-04-03 22:12:00,
2013-04-03 17:22:00,34.0,14.0,30.21,South,171,4.0,12.0,44,0.00,,,0.00,,2013-04-03 22:22:00,
2013-04-03 17:32:00,34.0,14.0,30.21,South,177,5.0,14.0,43,0.00,,,0.00,,2013-04-03 22:32:00,
2013-04-03 17:42:00,34.0,14.0,30.21,South,177,5.0,14.0,43,0.00,,,0.00,,2013-04-03 22:42:00,
2013-04-03 17:52:00,34.0,14.0,30.21,South,187,6.0,16.0,43,0.00,,,0.00,,2013-04-03 22:52:00,
2013-04-03 18:02:00,34.0,14.0,30.21,South,187,6.0,16.0,43,0.00,,,0.00,,2013-04-03 23:02:00,
2013-04-03 18:12:00,34.0,14.0,30.21,South,187,6.0,16.0,43,0.00,,,0.00,,2013-04-03 23:12:00,
2013-04-03 18:22:00,34.0,15.0,30.19,South,191,6.0,12.0,45,0.00,,,0.00,,2013-04-03 23:22:00,
2013-04-03 18:32:00,33.0,15.0,30.18,South,185,7.0,15.0,48,0.00,,,0.00,,2013-04-03 23:32:00,
2013-04-03 18:42:00,33.0,15.0,30.18,South,185,7.0,15.0,48,0.00,,,0.00,,2013-04-03 23:42:00,
2013-04-03 18:53:00,33.0,15.0,30.18,South,185,7.0,15.0,48,0.00,,,0.00,,2013-04-03 23:53:00,
2013-04-03 19:02:00,33.0,17.0,30.19,SSW,198,5.0,12.0,51,0.00,,,0.00,,2013-04-04 00:02:00,
2013-04-03 19:12:00,33.0,17.0,30.19,SSW,198,5.0,12.0,51,0.00,,,0.00,,2013-04-04 00:12:00,
2013-04-03 19:22:00,32.0,17.0,30.19,SSW,194,6.0,16.0,53,0.00,,,0.00,,2013-04-04 00:22:00,
2013-04-03 19:32:00,32.0,18.0,30.19,SSW,205,3.0,8.0,55,0.00,,,0.00,,2013-04-04 00:32:00,
2013-04-03 19:43:00,32.0,18.0,30.19,SSW,205,3.0,8.0,55,0.00,,,0.00,,2013-04-04 00:43:00,
2013-04-03 19:52:00,31.0,18.0,30.17,SSW,192,4.0,9.0,58,0.00,,,0.00,,2013-04-04 00:52:00,
2013-04-03 20:02:00,31.0,19.0,30.16,SSW,209,4.0,10.0,60,0.00,,,0.00,,2013-04-04 01:02:00,
2013-04-03 20:12:00,31.0,19.0,30.16,SSW,209,4.0,10.0,60,0.00,,,0.00,,2013-04-04 01:12:00,
2013-04-03 20:22:00,31.0,19.0,30.16,SSW,211,3.0,7.0,61,0.00,,,0.00,,2013-04-04 01:22:00,
2013-04-03 20:32:00,31.0,20.0,30.16,SSW,204,3.0,10.0,62,0.00,,,0.00,,2013-04-04 01:32:00,
2013-04-03 20:43:00,31.0,20.0,30.16,SSW,204,3.0,10.0,62,0.00,,,0.00,,2013-04-04 01:43:00,
2013-04-03 20:52:00,30.0,19.0,30.15,SW,215,2.0,10.0,62,0.00,,,0.00,,2013-04-04 01:52:00,
2013-04-03 21:02:00,30.0,19.0,30.15,SW,215,2.0,10.0,62,0.00,,,0.00,,2013-04-04 02:02:00,
2013-04-03 21:12:00,30.0,19.0,30.15,SW,215,2.0,10.0,62,0.00,,,0.00,,2013-04-04 02:12:00,
2013-04-03 21:22:00,30.0,19.0,30.15,SW,215,2.0,10.0,62,0.00,,,0.00,,2013-04-04 02:22:00,